sensor_id;sensor_type;location;lat;lon;timestamp;temperature;humidity
2024;DHT22;1016;48.770;9.154;2023-05-10T00:01:03;16.50;99.90
2024;DHT22;1016;48.770;9.154;2023-05-10T00:03:29;16.50;99.90
2024;DHT22;1016;48.770;9.154;2023-05-10T00:05:54;16.40;99.90
2024;DHT22;1016;48.770;9.154;2023-05-10T00:08:20;16.40;99.90
2024;DHT22;1016;48.770;9.154;2023-05-10T00:10:46;16.30;99.90
2024;DHT22;1016;48.770;9.154;2023-05-10T00:13:11;16.30;99.90
2024;DHT22;1016;48.770;9.154;2023-05-10T00:15:37;16.30;99.90
2024;DHT22;1016;48.770;9.154;2023-05-10T00:18:02;16.30;99.90
2024;DHT22;1016;48.770;9.154;2023-05-10T00:20:28;16.30;99.90
2024;DHT22;1016;48.770;9.154;2023-05-10T00:22:53;16.20;99.90
2024;DHT22;1016;48.770;9.154;2023-05-10T00:25:19;16.10;99.90
2024;DHT22;1016;48.770;9.154;2023-05-10T00:27:46;16.10;99.90
2024;DHT22;1016;48.770;9.154;2023-05-10T00:30:12;16.00;99.90
2024;DHT22;1016;48.770;9.154;2023-05-10T00:32:38;16.00;99.90
2024;DHT22;1016;48.770;9.154;2023-05-10T00:35:03;16.00;99.90
2024;DHT22;1016;48.770;9.154;2023-05-10T00:37:29;16.00;99.90
2024;DHT22;1016;48.770;9.154;2023-05-10T00:39:54;15.90;99.90
2024;DHT22;1016;48.770;9.154;2023-05-10T00:42:20;15.90;99.90
2024;DHT22;1016;48.770;9.154;2023-05-10T00:44:45;15.90;99.90
2024;DHT22;1016;48.770;9.154;2023-05-10T00:47:12;15.80;99.90
2024;DHT22;1016;48.770;9.154;2023-05-10T00:49:37;15.80;99.90
2024;DHT22;1016;48.770;9.154;2023-05-10T00:52:03;15.70;99.90
2024;DHT22;1016;48.770;9.154;2023-05-10T00:54:29;15.70;99.90
2024;DHT22;1016;48.770;9.154;2023-05-10T00:56:55;15.70;99.90
2024;DHT22;1016;48.770;9.154;2023-05-10T00:59:22;15.60;99.90
2024;DHT22;1016;48.770;9.154;2023-05-10T01:01:47;15.60;99.90
2024;DHT22;1016;48.770;9.154;2023-05-10T01:04:14;15.60;99.90
2024;DHT22;1016;48.770;9.154;2023-05-10T01:06:40;15.60;99.90
2024;DHT22;1016;48.770;9.154;2023-05-10T01:09:06;15.60;99.90
2024;DHT22;1016;48.770;9.154;2023-05-10T01:11:35;15.70;99.90
2024;DHT22;1016;48.770;9.154;2023-05-10T01:14:02;15.70;99.90
2024;DHT22;1016;48.770;9.154;2023-05-10T01:16:29;15.70;99.90
2024;DHT22;1016;48.770;9.154;2023-05-10T01:18:57;15.60;99.90
2024;DHT22;1016;48.770;9.154;2023-05-10T01:24:19;15.70;99.90
2024;DHT22;1016;48.770;9.154;2023-05-10T01:26:52;15.70;99.90
2024;DHT22;1016;48.770;9.154;2023-05-10T01:43:34;15.50;99.90
2024;DHT22;1016;48.770;9.154;2023-05-10T01:46:14;15.50;99.90
2024;DHT22;1016;48.770;9.154;2023-05-10T01:48:48;15.50;99.90
2024;DHT22;1016;48.770;9.154;2023-05-10T01:51:23;15.50;99.90
2024;DHT22;1016;48.770;9.154;2023-05-10T01:53:49;15.50;99.90
2024;DHT22;1016;48.770;9.154;2023-05-10T01:56:19;15.50;99.90
2024;DHT22;1016;48.770;9.154;2023-05-10T01:58:48;15.60;99.90
2024;DHT22;1016;48.770;9.154;2023-05-10T02:01:15;15.60;99.90
2024;DHT22;1016;48.770;9.154;2023-05-10T02:03:42;15.60;99.90
2024;DHT22;1016;48.770;9.154;2023-05-10T02:06:10;15.60;99.90
2024;DHT22;1016;48.770;9.154;2023-05-10T02:08:38;15.60;99.90
2024;DHT22;1016;48.770;9.154;2023-05-10T02:11:05;15.70;99.90
2024;DHT22;1016;48.770;9.154;2023-05-10T02:13:32;15.80;99.90
2024;DHT22;1016;48.770;9.154;2023-05-10T02:15:59;15.80;99.90
2024;DHT22;1016;48.770;9.154;2023-05-10T02:18:27;15.70;99.90
2024;DHT22;1016;48.770;9.154;2023-05-10T02:20:53;15.80;99.90
2024;DHT22;1016;48.770;9.154;2023-05-10T02:23:20;15.80;99.90
2024;DHT22;1016;48.770;9.154;2023-05-10T02:25:48;15.80;99.90
2024;DHT22;1016;48.770;9.154;2023-05-10T02:28:15;15.80;99.90
2024;DHT22;1016;48.770;9.154;2023-05-10T02:30:41;15.70;99.90
2024;DHT22;1016;48.770;9.154;2023-05-10T02:33:07;15.70;99.90
2024;DHT22;1016;48.770;9.154;2023-05-10T02:35:33;15.70;99.90
2024;DHT22;1016;48.770;9.154;2023-05-10T02:38:00;15.70;99.90
2024;DHT22;1016;48.770;9.154;2023-05-10T02:40:27;15.70;99.90
2024;DHT22;1016;48.770;9.154;2023-05-10T02:42:56;15.70;99.90
2024;DHT22;1016;48.770;9.154;2023-05-10T02:45:24;15.70;99.90
2024;DHT22;1016;48.770;9.154;2023-05-10T02:47:51;15.60;99.90
2024;DHT22;1016;48.770;9.154;2023-05-10T02:50:17;15.60;99.90
2024;DHT22;1016;48.770;9.154;2023-05-10T02:52:46;15.60;99.90
2024;DHT22;1016;48.770;9.154;2023-05-10T02:55:14;15.60;99.90
2024;DHT22;1016;48.770;9.154;2023-05-10T02:57:46;15.60;99.90
2024;DHT22;1016;48.770;9.154;2023-05-10T03:00:14;15.60;99.90
2024;DHT22;1016;48.770;9.154;2023-05-10T03:02:40;15.50;99.90
2024;DHT22;1016;48.770;9.154;2023-05-10T03:05:05;15.50;99.90
2024;DHT22;1016;48.770;9.154;2023-05-10T03:07:32;15.50;99.90
2024;DHT22;1016;48.770;9.154;2023-05-10T03:09:58;15.50;99.90
2024;DHT22;1016;48.770;9.154;2023-05-10T03:12:57;15.50;99.90
2024;DHT22;1016;48.770;9.154;2023-05-10T03:16:07;15.50;99.90
2024;DHT22;1016;48.770;9.154;2023-05-10T03:18:54;15.50;99.90
2024;DHT22;1016;48.770;9.154;2023-05-10T03:21:24;15.50;99.90
2024;DHT22;1016;48.770;9.154;2023-05-10T03:24:01;15.40;99.90
2024;DHT22;1016;48.770;9.154;2023-05-10T03:26:30;15.40;99.90
2024;DHT22;1016;48.770;9.154;2023-05-10T03:28:57;15.50;99.90
2024;DHT22;1016;48.770;9.154;2023-05-10T03:31:24;15.50;99.90
2024;DHT22;1016;48.770;9.154;2023-05-10T03:33:50;15.50;99.90
2024;DHT22;1016;48.770;9.154;2023-05-10T03:36:16;15.50;99.90
2024;DHT22;1016;48.770;9.154;2023-05-10T03:38:42;15.50;99.90
2024;DHT22;1016;48.770;9.154;2023-05-10T03:41:08;15.40;99.90
2024;DHT22;1016;48.770;9.154;2023-05-10T03:43:33;15.40;99.90
2024;DHT22;1016;48.770;9.154;2023-05-10T03:46:02;15.60;99.90
2024;DHT22;1016;48.770;9.154;2023-05-10T03:48:27;15.40;99.90
2024;DHT22;1016;48.770;9.154;2023-05-10T03:50:53;15.50;99.90
2024;DHT22;1016;48.770;9.154;2023-05-10T03:53:18;15.50;99.90
2024;DHT22;1016;48.770;9.154;2023-05-10T03:55:44;15.50;99.90
2024;DHT22;1016;48.770;9.154;2023-05-10T03:58:12;15.50;99.90
2024;DHT22;1016;48.770;9.154;2023-05-10T04:00:38;15.50;99.90
2024;DHT22;1016;48.770;9.154;2023-05-10T04:03:09;15.40;99.90
2024;DHT22;1016;48.770;9.154;2023-05-10T04:05:35;15.40;99.90
2024;DHT22;1016;48.770;9.154;2023-05-10T04:08:00;15.40;99.90
2024;DHT22;1016;48.770;9.154;2023-05-10T04:10:26;15.40;99.90
2024;DHT22;1016;48.770;9.154;2023-05-10T04:12:51;15.40;99.90
2024;DHT22;1016;48.770;9.154;2023-05-10T04:15:17;15.40;99.90
2024;DHT22;1016;48.770;9.154;2023-05-10T04:17:42;15.40;99.90
2024;DHT22;1016;48.770;9.154;2023-05-10T04:20:08;15.40;99.90
2024;DHT22;1016;48.770;9.154;2023-05-10T04:22:34;15.40;99.90
2024;DHT22;1016;48.770;9.154;2023-05-10T04:24:59;15.40;99.90
2024;DHT22;1016;48.770;9.154;2023-05-10T04:27:25;15.30;99.90
2024;DHT22;1016;48.770;9.154;2023-05-10T04:29:50;15.40;99.90
2024;DHT22;1016;48.770;9.154;2023-05-10T04:32:16;15.40;99.90
2024;DHT22;1016;48.770;9.154;2023-05-10T04:34:43;15.40;99.90
2024;DHT22;1016;48.770;9.154;2023-05-10T04:37:08;15.40;99.90
2024;DHT22;1016;48.770;9.154;2023-05-10T04:39:34;15.40;99.90
2024;DHT22;1016;48.770;9.154;2023-05-10T04:42:01;15.50;99.90
2024;DHT22;1016;48.770;9.154;2023-05-10T04:44:28;15.50;99.90
2024;DHT22;1016;48.770;9.154;2023-05-10T04:46:53;15.60;99.90
2024;DHT22;1016;48.770;9.154;2023-05-10T04:49:19;15.60;99.90
2024;DHT22;1016;48.770;9.154;2023-05-10T04:51:45;15.50;99.90
2024;DHT22;1016;48.770;9.154;2023-05-10T04:54:10;15.60;99.90
2024;DHT22;1016;48.770;9.154;2023-05-10T04:56:36;15.50;99.90
2024;DHT22;1016;48.770;9.154;2023-05-10T04:59:01;15.50;99.90
2024;DHT22;1016;48.770;9.154;2023-05-10T05:01:27;15.60;99.90
2024;DHT22;1016;48.770;9.154;2023-05-10T05:03:53;15.50;99.90
2024;DHT22;1016;48.770;9.154;2023-05-10T05:06:18;15.50;99.90
2024;DHT22;1016;48.770;9.154;2023-05-10T05:08:46;15.50;99.90
2024;DHT22;1016;48.770;9.154;2023-05-10T05:11:11;15.50;99.90
2024;DHT22;1016;48.770;9.154;2023-05-10T05:13:37;15.60;99.90
2024;DHT22;1016;48.770;9.154;2023-05-10T05:16:02;15.60;99.90
2024;DHT22;1016;48.770;9.154;2023-05-10T05:18:28;15.60;99.90
2024;DHT22;1016;48.770;9.154;2023-05-10T05:20:54;15.60;99.90
2024;DHT22;1016;48.770;9.154;2023-05-10T05:23:19;15.60;99.90
2024;DHT22;1016;48.770;9.154;2023-05-10T05:25:46;15.60;99.90
2024;DHT22;1016;48.770;9.154;2023-05-10T05:28:11;15.70;99.90
2024;DHT22;1016;48.770;9.154;2023-05-10T05:30:37;15.70;99.90
2024;DHT22;1016;48.770;9.154;2023-05-10T05:33:03;15.70;99.90
2024;DHT22;1016;48.770;9.154;2023-05-10T05:35:28;15.70;99.90
2024;DHT22;1016;48.770;9.154;2023-05-10T05:37:54;15.60;99.90
2024;DHT22;1016;48.770;9.154;2023-05-10T05:40:19;15.60;99.90
2024;DHT22;1016;48.770;9.154;2023-05-10T05:42:45;15.60;99.90
2024;DHT22;1016;48.770;9.154;2023-05-10T05:45:11;15.70;99.90
2024;DHT22;1016;48.770;9.154;2023-05-10T05:47:38;15.70;99.90
2024;DHT22;1016;48.770;9.154;2023-05-10T05:50:05;15.70;99.90
2024;DHT22;1016;48.770;9.154;2023-05-10T05:52:30;15.70;99.90
2024;DHT22;1016;48.770;9.154;2023-05-10T05:54:56;15.80;99.90
2024;DHT22;1016;48.770;9.154;2023-05-10T05:57:21;15.80;99.90
2024;DHT22;1016;48.770;9.154;2023-05-10T05:59:47;15.80;99.90
2024;DHT22;1016;48.770;9.154;2023-05-10T06:02:12;15.80;99.90
2024;DHT22;1016;48.770;9.154;2023-05-10T06:04:38;15.80;99.90
2024;DHT22;1016;48.770;9.154;2023-05-10T06:07:03;15.80;99.90
2024;DHT22;1016;48.770;9.154;2023-05-10T06:09:29;15.90;99.90
2024;DHT22;1016;48.770;9.154;2023-05-10T06:11:54;15.90;99.90
2024;DHT22;1016;48.770;9.154;2023-05-10T06:14:20;15.80;99.90
2024;DHT22;1016;48.770;9.154;2023-05-10T06:16:46;15.90;99.90
2024;DHT22;1016;48.770;9.154;2023-05-10T06:19:12;15.80;99.90
2024;DHT22;1016;48.770;9.154;2023-05-10T06:21:37;15.90;99.90
2024;DHT22;1016;48.770;9.154;2023-05-10T06:24:03;15.90;99.90
2024;DHT22;1016;48.770;9.154;2023-05-10T06:26:29;15.90;99.90
2024;DHT22;1016;48.770;9.154;2023-05-10T06:28:54;15.90;99.90
2024;DHT22;1016;48.770;9.154;2023-05-10T06:31:20;15.90;99.90
2024;DHT22;1016;48.770;9.154;2023-05-10T06:33:46;15.90;99.90
2024;DHT22;1016;48.770;9.154;2023-05-10T06:36:11;15.90;99.90
2024;DHT22;1016;48.770;9.154;2023-05-10T06:38:37;15.90;99.90
2024;DHT22;1016;48.770;9.154;2023-05-10T06:41:02;15.90;99.90
2024;DHT22;1016;48.770;9.154;2023-05-10T06:43:28;15.90;99.90
2024;DHT22;1016;48.770;9.154;2023-05-10T06:45:54;15.90;99.90
2024;DHT22;1016;48.770;9.154;2023-05-10T06:48:19;16.00;99.90
2024;DHT22;1016;48.770;9.154;2023-05-10T06:50:45;16.00;99.90
2024;DHT22;1016;48.770;9.154;2023-05-10T06:53:10;16.00;99.90
2024;DHT22;1016;48.770;9.154;2023-05-10T06:55:37;16.00;99.90
2024;DHT22;1016;48.770;9.154;2023-05-10T06:58:03;16.00;99.90
2024;DHT22;1016;48.770;9.154;2023-05-10T07:00:28;16.00;99.90
2024;DHT22;1016;48.770;9.154;2023-05-10T07:02:54;16.00;99.90
2024;DHT22;1016;48.770;9.154;2023-05-10T07:05:20;16.10;99.90
2024;DHT22;1016;48.770;9.154;2023-05-10T07:07:46;16.10;99.90
2024;DHT22;1016;48.770;9.154;2023-05-10T07:10:11;16.20;99.90
2024;DHT22;1016;48.770;9.154;2023-05-10T07:12:36;16.20;99.90
2024;DHT22;1016;48.770;9.154;2023-05-10T07:15:03;16.20;99.90
2024;DHT22;1016;48.770;9.154;2023-05-10T07:17:29;16.20;99.90
2024;DHT22;1016;48.770;9.154;2023-05-10T07:19:55;16.20;99.90
2024;DHT22;1016;48.770;9.154;2023-05-10T07:22:20;16.20;99.90
2024;DHT22;1016;48.770;9.154;2023-05-10T07:24:46;16.20;99.90
2024;DHT22;1016;48.770;9.154;2023-05-10T07:27:11;16.20;99.90
2024;DHT22;1016;48.770;9.154;2023-05-10T07:29:38;16.30;99.90
2024;DHT22;1016;48.770;9.154;2023-05-10T07:32:04;16.30;99.90
2024;DHT22;1016;48.770;9.154;2023-05-10T07:34:30;16.30;99.90
2024;DHT22;1016;48.770;9.154;2023-05-10T07:36:58;16.30;99.90
2024;DHT22;1016;48.770;9.154;2023-05-10T07:39:24;16.40;99.90
2024;DHT22;1016;48.770;9.154;2023-05-10T07:41:49;16.40;99.90
2024;DHT22;1016;48.770;9.154;2023-05-10T07:44:15;16.40;99.90
2024;DHT22;1016;48.770;9.154;2023-05-10T07:46:43;16.50;99.90
2024;DHT22;1016;48.770;9.154;2023-05-10T07:49:09;16.50;99.90
2024;DHT22;1016;48.770;9.154;2023-05-10T07:51:34;16.50;99.90
2024;DHT22;1016;48.770;9.154;2023-05-10T07:54:00;16.50;99.90
2024;DHT22;1016;48.770;9.154;2023-05-10T07:56:29;16.50;99.90
2024;DHT22;1016;48.770;9.154;2023-05-10T07:58:59;16.50;99.90
2024;DHT22;1016;48.770;9.154;2023-05-10T08:01:25;16.50;99.90
2024;DHT22;1016;48.770;9.154;2023-05-10T08:03:50;16.50;99.90
2024;DHT22;1016;48.770;9.154;2023-05-10T08:06:18;16.50;99.90
2024;DHT22;1016;48.770;9.154;2023-05-10T08:08:45;16.50;99.90
2024;DHT22;1016;48.770;9.154;2023-05-10T08:11:17;16.50;99.90
2024;DHT22;1016;48.770;9.154;2023-05-10T08:13:43;16.50;99.90
2024;DHT22;1016;48.770;9.154;2023-05-10T08:16:08;16.50;99.90
2024;DHT22;1016;48.770;9.154;2023-05-10T08:18:34;16.60;99.90
2024;DHT22;1016;48.770;9.154;2023-05-10T08:20:59;16.60;99.90
2024;DHT22;1016;48.770;9.154;2023-05-10T08:23:25;16.60;99.90
2024;DHT22;1016;48.770;9.154;2023-05-10T08:25:51;16.60;99.90
2024;DHT22;1016;48.770;9.154;2023-05-10T08:28:16;16.60;99.90
2024;DHT22;1016;48.770;9.154;2023-05-10T08:30:42;16.60;99.90
2024;DHT22;1016;48.770;9.154;2023-05-10T08:33:07;16.60;99.90
2024;DHT22;1016;48.770;9.154;2023-05-10T08:35:33;16.60;99.90
2024;DHT22;1016;48.770;9.154;2023-05-10T08:38:00;16.60;99.90
2024;DHT22;1016;48.770;9.154;2023-05-10T08:40:26;16.60;99.90
2024;DHT22;1016;48.770;9.154;2023-05-10T08:43:06;16.60;99.90
2024;DHT22;1016;48.770;9.154;2023-05-10T08:45:40;16.60;99.90
2024;DHT22;1016;48.770;9.154;2023-05-10T08:48:07;16.70;99.90
2024;DHT22;1016;48.770;9.154;2023-05-10T08:50:36;16.70;99.90
2024;DHT22;1016;48.770;9.154;2023-05-10T08:53:04;16.70;99.90
2024;DHT22;1016;48.770;9.154;2023-05-10T08:55:30;16.80;99.90
2024;DHT22;1016;48.770;9.154;2023-05-10T08:57:58;16.80;99.90
2024;DHT22;1016;48.770;9.154;2023-05-10T09:00:23;16.80;99.90
2024;DHT22;1016;48.770;9.154;2023-05-10T09:02:50;16.80;99.90
2024;DHT22;1016;48.770;9.154;2023-05-10T09:05:15;16.80;99.90
2024;DHT22;1016;48.770;9.154;2023-05-10T09:07:42;16.70;99.90
2024;DHT22;1016;48.770;9.154;2023-05-10T09:10:09;16.70;99.90
2024;DHT22;1016;48.770;9.154;2023-05-10T09:12:35;16.70;99.90
2024;DHT22;1016;48.770;9.154;2023-05-10T09:15:01;16.80;99.90
2024;DHT22;1016;48.770;9.154;2023-05-10T09:17:28;16.80;99.90
2024;DHT22;1016;48.770;9.154;2023-05-10T09:20:02;16.70;99.90
2024;DHT22;1016;48.770;9.154;2023-05-10T09:22:28;16.70;99.90
2024;DHT22;1016;48.770;9.154;2023-05-10T09:25:20;16.70;99.90
2024;DHT22;1016;48.770;9.154;2023-05-10T09:27:47;16.60;99.90
2024;DHT22;1016;48.770;9.154;2023-05-10T09:30:29;16.70;99.90
2024;DHT22;1016;48.770;9.154;2023-05-10T09:32:57;16.60;99.90
2024;DHT22;1016;48.770;9.154;2023-05-10T09:35:25;16.60;99.90
2024;DHT22;1016;48.770;9.154;2023-05-10T09:37:53;16.70;99.90
2024;DHT22;1016;48.770;9.154;2023-05-10T09:40:23;16.80;99.90
2024;DHT22;1016;48.770;9.154;2023-05-10T09:43:03;17.00;99.90
2024;DHT22;1016;48.770;9.154;2023-05-10T09:45:34;16.90;99.90
2024;DHT22;1016;48.770;9.154;2023-05-10T09:48:01;16.90;99.90
2024;DHT22;1016;48.770;9.154;2023-05-10T09:50:28;17.00;99.90
2024;DHT22;1016;48.770;9.154;2023-05-10T09:53:01;17.00;99.90
2024;DHT22;1016;48.770;9.154;2023-05-10T09:55:54;17.00;99.90
2024;DHT22;1016;48.770;9.154;2023-05-10T09:58:20;17.10;99.90
2024;DHT22;1016;48.770;9.154;2023-05-10T10:00:46;17.10;99.90
2024;DHT22;1016;48.770;9.154;2023-05-10T10:03:18;17.20;99.90
2024;DHT22;1016;48.770;9.154;2023-05-10T10:05:44;17.20;99.90
2024;DHT22;1016;48.770;9.154;2023-05-10T10:08:11;17.30;99.90
2024;DHT22;1016;48.770;9.154;2023-05-10T10:10:37;17.30;99.90
2024;DHT22;1016;48.770;9.154;2023-05-10T10:13:05;17.40;99.90
2024;DHT22;1016;48.770;9.154;2023-05-10T10:15:33;17.40;99.90
2024;DHT22;1016;48.770;9.154;2023-05-10T10:17:58;17.40;99.90
2024;DHT22;1016;48.770;9.154;2023-05-10T10:20:27;17.40;99.90
2024;DHT22;1016;48.770;9.154;2023-05-10T10:22:53;17.40;99.90
2024;DHT22;1016;48.770;9.154;2023-05-10T10:25:20;17.50;99.90
2024;DHT22;1016;48.770;9.154;2023-05-10T10:33:30;17.40;99.90
2024;DHT22;1016;48.770;9.154;2023-05-10T10:36:00;17.40;99.90
2024;DHT22;1016;48.770;9.154;2023-05-10T10:38:36;17.40;99.90
2024;DHT22;1016;48.770;9.154;2023-05-10T10:41:09;17.40;99.90
2024;DHT22;1016;48.770;9.154;2023-05-10T10:43:35;17.40;99.90
2024;DHT22;1016;48.770;9.154;2023-05-10T10:48:47;17.40;99.90
2024;DHT22;1016;48.770;9.154;2023-05-10T10:51:14;17.40;99.90
2024;DHT22;1016;48.770;9.154;2023-05-10T10:53:40;17.20;99.90
2024;DHT22;1016;48.770;9.154;2023-05-10T10:56:10;17.10;99.90
2024;DHT22;1016;48.770;9.154;2023-05-10T10:58:37;17.10;99.90
2024;DHT22;1016;48.770;9.154;2023-05-10T11:01:18;16.90;99.90
2024;DHT22;1016;48.770;9.154;2023-05-10T11:06:36;16.70;99.90
2024;DHT22;1016;48.770;9.154;2023-05-10T11:09:07;16.60;99.90
2024;DHT22;1016;48.770;9.154;2023-05-10T11:11:34;16.60;99.90
2024;DHT22;1016;48.770;9.154;2023-05-10T11:14:05;16.70;99.90
2024;DHT22;1016;48.770;9.154;2023-05-10T11:16:44;16.60;99.90
2024;DHT22;1016;48.770;9.154;2023-05-10T11:19:14;16.60;99.90
2024;DHT22;1016;48.770;9.154;2023-05-10T11:24:31;16.60;99.90
2024;DHT22;1016;48.770;9.154;2023-05-10T11:26:56;16.70;99.90
2024;DHT22;1016;48.770;9.154;2023-05-10T11:29:22;16.70;99.90
2024;DHT22;1016;48.770;9.154;2023-05-10T11:31:50;16.70;99.90
2024;DHT22;1016;48.770;9.154;2023-05-10T11:34:36;16.80;99.90
2024;DHT22;1016;48.770;9.154;2023-05-10T11:37:01;16.80;99.90
2024;DHT22;1016;48.770;9.154;2023-05-10T11:39:31;16.90;99.90
2024;DHT22;1016;48.770;9.154;2023-05-10T11:41:57;16.90;99.90
2024;DHT22;1016;48.770;9.154;2023-05-10T11:44:24;16.90;99.90
2024;DHT22;1016;48.770;9.154;2023-05-10T11:46:54;16.80;99.90
2024;DHT22;1016;48.770;9.154;2023-05-10T11:49:20;16.80;99.90
2024;DHT22;1016;48.770;9.154;2023-05-10T11:51:48;16.80;99.90
2024;DHT22;1016;48.770;9.154;2023-05-10T11:54:13;16.60;99.90
2024;DHT22;1016;48.770;9.154;2023-05-10T11:56:40;16.50;99.90
2024;DHT22;1016;48.770;9.154;2023-05-10T11:59:06;16.50;99.90
2024;DHT22;1016;48.770;9.154;2023-05-10T12:01:31;16.50;99.90
2024;DHT22;1016;48.770;9.154;2023-05-10T12:03:58;16.50;99.90
2024;DHT22;1016;48.770;9.154;2023-05-10T12:06:34;16.60;99.90
2024;DHT22;1016;48.770;9.154;2023-05-10T12:09:05;16.60;99.90
2024;DHT22;1016;48.770;9.154;2023-05-10T12:11:31;16.60;99.90
2024;DHT22;1016;48.770;9.154;2023-05-10T12:13:57;16.70;99.90
2024;DHT22;1016;48.770;9.154;2023-05-10T12:16:25;16.70;99.90
2024;DHT22;1016;48.770;9.154;2023-05-10T12:18:52;16.70;99.90
2024;DHT22;1016;48.770;9.154;2023-05-10T12:21:20;16.80;99.90
2024;DHT22;1016;48.770;9.154;2023-05-10T12:23:51;16.90;99.90
2024;DHT22;1016;48.770;9.154;2023-05-10T12:26:17;17.00;99.90
2024;DHT22;1016;48.770;9.154;2023-05-10T12:28:43;17.00;99.90
2024;DHT22;1016;48.770;9.154;2023-05-10T12:31:09;17.10;99.90
2024;DHT22;1016;48.770;9.154;2023-05-10T12:33:40;17.20;99.90
2024;DHT22;1016;48.770;9.154;2023-05-10T12:36:10;17.20;99.90
2024;DHT22;1016;48.770;9.154;2023-05-10T12:38:46;17.20;99.90
2024;DHT22;1016;48.770;9.154;2023-05-10T12:41:16;17.20;99.90
2024;DHT22;1016;48.770;9.154;2023-05-10T12:43:42;17.30;99.90
2024;DHT22;1016;48.770;9.154;2023-05-10T12:46:09;17.30;99.90
2024;DHT22;1016;48.770;9.154;2023-05-10T12:48:36;17.40;99.90
2024;DHT22;1016;48.770;9.154;2023-05-10T12:51:02;17.30;99.90
2024;DHT22;1016;48.770;9.154;2023-05-10T12:53:28;17.30;99.90
2024;DHT22;1016;48.770;9.154;2023-05-10T12:55:54;17.30;99.90
2024;DHT22;1016;48.770;9.154;2023-05-10T12:58:20;17.20;99.90
2024;DHT22;1016;48.770;9.154;2023-05-10T13:00:45;17.10;99.90
2024;DHT22;1016;48.770;9.154;2023-05-10T13:03:11;17.10;99.90
2024;DHT22;1016;48.770;9.154;2023-05-10T13:05:37;17.10;99.90
2024;DHT22;1016;48.770;9.154;2023-05-10T13:08:03;17.10;99.90
2024;DHT22;1016;48.770;9.154;2023-05-10T13:10:29;17.00;99.90
2024;DHT22;1016;48.770;9.154;2023-05-10T13:12:55;17.10;99.90
2024;DHT22;1016;48.770;9.154;2023-05-10T13:15:21;17.10;99.90
2024;DHT22;1016;48.770;9.154;2023-05-10T13:17:50;17.10;99.90
2024;DHT22;1016;48.770;9.154;2023-05-10T13:20:17;17.10;99.90
2024;DHT22;1016;48.770;9.154;2023-05-10T13:22:45;17.10;99.90
2024;DHT22;1016;48.770;9.154;2023-05-10T13:25:12;17.20;99.90
2024;DHT22;1016;48.770;9.154;2023-05-10T13:27:40;17.30;99.90
2024;DHT22;1016;48.770;9.154;2023-05-10T13:30:07;17.30;99.90
2024;DHT22;1016;48.770;9.154;2023-05-10T13:32:33;17.30;99.90
2024;DHT22;1016;48.770;9.154;2023-05-10T13:34:59;17.40;99.90
2024;DHT22;1016;48.770;9.154;2023-05-10T13:37:24;17.40;99.90
2024;DHT22;1016;48.770;9.154;2023-05-10T13:39:50;17.50;99.90
2024;DHT22;1016;48.770;9.154;2023-05-10T13:42:15;17.50;99.90
2024;DHT22;1016;48.770;9.154;2023-05-10T13:44:41;17.40;99.90
2024;DHT22;1016;48.770;9.154;2023-05-10T13:47:06;17.40;99.90
2024;DHT22;1016;48.770;9.154;2023-05-10T13:49:32;17.30;99.90
2024;DHT22;1016;48.770;9.154;2023-05-10T13:51:59;17.30;99.90
2024;DHT22;1016;48.770;9.154;2023-05-10T13:54:26;17.40;99.90
2024;DHT22;1016;48.770;9.154;2023-05-10T13:56:54;17.30;99.90
2024;DHT22;1016;48.770;9.154;2023-05-10T13:59:20;17.40;99.90
2024;DHT22;1016;48.770;9.154;2023-05-10T14:01:45;17.40;99.90
2024;DHT22;1016;48.770;9.154;2023-05-10T14:04:11;17.50;99.90
2024;DHT22;1016;48.770;9.154;2023-05-10T14:06:36;17.60;99.90
2024;DHT22;1016;48.770;9.154;2023-05-10T14:09:05;17.70;99.90
2024;DHT22;1016;48.770;9.154;2023-05-10T14:11:30;17.70;99.90
2024;DHT22;1016;48.770;9.154;2023-05-10T14:13:56;17.70;99.90
2024;DHT22;1016;48.770;9.154;2023-05-10T14:16:21;17.70;99.90
2024;DHT22;1016;48.770;9.154;2023-05-10T14:18:47;17.70;99.90
2024;DHT22;1016;48.770;9.154;2023-05-10T14:21:13;17.70;99.90
2024;DHT22;1016;48.770;9.154;2023-05-10T14:23:38;17.70;99.90
2024;DHT22;1016;48.770;9.154;2023-05-10T14:26:04;17.70;99.90
2024;DHT22;1016;48.770;9.154;2023-05-10T14:28:30;17.70;99.90
2024;DHT22;1016;48.770;9.154;2023-05-10T14:30:56;17.70;99.90
2024;DHT22;1016;48.770;9.154;2023-05-10T14:33:21;17.70;99.90
2024;DHT22;1016;48.770;9.154;2023-05-10T14:35:47;17.60;99.90
2024;DHT22;1016;48.770;9.154;2023-05-10T14:38:14;17.60;99.90
2024;DHT22;1016;48.770;9.154;2023-05-10T14:40:39;17.60;99.90
2024;DHT22;1016;48.770;9.154;2023-05-10T14:43:05;17.60;99.90
2024;DHT22;1016;48.770;9.154;2023-05-10T14:45:31;17.60;99.90
2024;DHT22;1016;48.770;9.154;2023-05-10T14:47:57;17.80;99.90
2024;DHT22;1016;48.770;9.154;2023-05-10T14:50:23;17.80;99.90
2024;DHT22;1016;48.770;9.154;2023-05-10T14:52:48;17.70;99.90
2024;DHT22;1016;48.770;9.154;2023-05-10T14:55:14;17.70;99.90
2024;DHT22;1016;48.770;9.154;2023-05-10T14:57:40;17.80;99.90
2024;DHT22;1016;48.770;9.154;2023-05-10T15:00:06;17.80;99.90
2024;DHT22;1016;48.770;9.154;2023-05-10T15:02:32;17.80;99.90
2024;DHT22;1016;48.770;9.154;2023-05-10T15:04:58;17.80;99.90
2024;DHT22;1016;48.770;9.154;2023-05-10T15:07:23;17.70;99.90
2024;DHT22;1016;48.770;9.154;2023-05-10T15:09:50;17.60;99.90
2024;DHT22;1016;48.770;9.154;2023-05-10T15:12:16;17.70;99.90
2024;DHT22;1016;48.770;9.154;2023-05-10T15:14:42;17.70;99.90
2024;DHT22;1016;48.770;9.154;2023-05-10T15:17:07;17.80;99.90
2024;DHT22;1016;48.770;9.154;2023-05-10T15:19:33;17.80;99.90
2024;DHT22;1016;48.770;9.154;2023-05-10T15:21:59;17.70;99.90
2024;DHT22;1016;48.770;9.154;2023-05-10T15:24:25;17.60;99.90
2024;DHT22;1016;48.770;9.154;2023-05-10T15:26:50;17.60;99.90
2024;DHT22;1016;48.770;9.154;2023-05-10T15:29:15;17.60;99.90
2024;DHT22;1016;48.770;9.154;2023-05-10T15:31:49;17.60;99.90
2024;DHT22;1016;48.770;9.154;2023-05-10T15:34:15;17.70;99.90
2024;DHT22;1016;48.770;9.154;2023-05-10T15:36:41;17.80;99.90
2024;DHT22;1016;48.770;9.154;2023-05-10T15:39:07;17.70;99.90
2024;DHT22;1016;48.770;9.154;2023-05-10T15:41:34;17.70;99.90
2024;DHT22;1016;48.770;9.154;2023-05-10T15:43:59;17.70;99.90
2024;DHT22;1016;48.770;9.154;2023-05-10T15:46:25;17.70;99.90
2024;DHT22;1016;48.770;9.154;2023-05-10T15:48:51;17.70;99.90
2024;DHT22;1016;48.770;9.154;2023-05-10T15:51:16;17.70;99.90
2024;DHT22;1016;48.770;9.154;2023-05-10T15:53:42;17.70;99.90
2024;DHT22;1016;48.770;9.154;2023-05-10T15:56:07;17.70;99.90
2024;DHT22;1016;48.770;9.154;2023-05-10T15:58:33;17.70;99.90
2024;DHT22;1016;48.770;9.154;2023-05-10T16:00:59;17.70;99.90
2024;DHT22;1016;48.770;9.154;2023-05-10T16:03:24;17.70;99.90
2024;DHT22;1016;48.770;9.154;2023-05-10T16:05:50;17.70;99.90
2024;DHT22;1016;48.770;9.154;2023-05-10T16:08:16;17.70;99.90
2024;DHT22;1016;48.770;9.154;2023-05-10T16:10:42;17.70;99.90
2024;DHT22;1016;48.770;9.154;2023-05-10T16:13:07;17.80;99.90
2024;DHT22;1016;48.770;9.154;2023-05-10T16:15:33;17.70;99.90
2024;DHT22;1016;48.770;9.154;2023-05-10T16:17:58;17.70;99.90
2024;DHT22;1016;48.770;9.154;2023-05-10T16:20:24;17.70;99.90
2024;DHT22;1016;48.770;9.154;2023-05-10T16:22:50;17.60;99.90
2024;DHT22;1016;48.770;9.154;2023-05-10T16:25:15;17.60;99.90
2024;DHT22;1016;48.770;9.154;2023-05-10T16:27:41;17.60;99.90
2024;DHT22;1016;48.770;9.154;2023-05-10T16:30:08;17.70;99.90
2024;DHT22;1016;48.770;9.154;2023-05-10T16:32:33;17.60;99.90